Time;durP1;ratioP1;P1;durP2;ratioP2;P2;SDS_P1;SDS_P2;PMS_P1;PMS_P2;Temp;Humidity;BMP_temperature;BMP_pressure;BME280_temperature;BME280_humidity;BME280_pressure;Samples;Min_cycle;Max_cycle;Signal;HPM_P1;HPM_P2
2023/09/04 00:00:14;;;;;;;;;;;;;;;-140.72;100.00;52622.19;5069929;28;20388;-69
2023/09/04 00:02:57;;;;;;;;;;;;;;;-140.72;100.00;52638.41;5070588;28;19923;-69
2023/09/04 00:05:22;;;;;;;;;;;;;;;-140.72;100.00;52605.94;5074002;28;19926;-68
2023/09/04 00:07:51;;;;;;;;;;;;;;;-140.72;100.00;52591.75;5070817;28;20056;-69
2023/09/04 00:10:16;;;;;;;;;;;;;;;-140.72;100.00;52599.88;5063583;28;20492;-68
2023/09/04 00:12:41;;;;;;;;;;;;;;;-140.72;100.00;52626.25;5065553;28;19952;-69
2023/09/04 00:15:07;;;;;;;;;;;;;;;-140.72;100.00;52618.13;5056477;28;19920;-68
2023/09/04 00:17:32;;;;;;;;;;;;;;;-140.72;100.00;52650.59;5070134;28;20322;-69
2023/09/04 00:19:57;;;;;;;;;;;;;;;-140.72;100.00;52618.13;5073576;28;20114;-69
2023/09/04 00:22:22;;;;;;;;;;;;;;;-140.72;100.00;52622.19;5074039;28;19924;-69
2023/09/04 00:24:48;;;;;;;;;;;;;;;-140.72;100.00;52616.09;5068636;28;19923;-69
2023/09/04 00:27:13;;;;;;;;;;;;;;;-140.72;100.00;52585.66;5057268;28;19917;-70
2023/09/04 00:29:39;;;;;;;;;;;;;;;-140.72;100.00;52601.91;5075938;28;19932;-69
2023/09/04 00:32:06;;;;;;;;;;;;;;;-140.72;100.00;52634.38;5055839;28;20008;-69
2023/09/04 00:34:31;;;;;;;;;;;;;;;-140.72;100.00;52624.22;5068905;28;19925;-69
2023/09/04 00:36:56;;;;;;;;;;;;;;;-140.72;100.00;52616.09;5059403;28;19978;-69
2023/09/04 00:39:22;;;;;;;;;;;;;;;-140.72;100.00;52642.47;5087223;28;20376;-68
2023/09/04 00:41:47;;;;;;;;;;;;;;;-140.72;100.00;52581.59;5061532;28;19924;-69
2023/09/04 00:44:12;;;;;;;;;;;;;;;-140.72;100.00;52614.06;5059487;28;20003;-69
2023/09/04 00:46:38;;;;;;;;;;;;;;;-140.72;100.00;52626.25;5060371;28;19928;-69
2023/09/04 00:49:03;;;;;;;;;;;;;;;-140.72;100.00;52662.78;5076515;28;19924;-69
2023/09/04 00:51:29;;;;;;;;;;;;;;;-140.72;100.00;52591.75;5085134;28;20302;-69
2023/09/04 00:53:54;;;;;;;;;;;;;;;-140.72;100.00;52614.06;5071259;28;20378;-69
2023/09/04 00:56:20;;;;;;;;;;;;;;;-140.72;100.00;52634.38;5071534;28;19924;-69
2023/09/04 00:58:45;;;;;;;;;;;;;;;-140.72;100.00;52642.47;5070401;28;20293;-69
2023/09/04 01:01:11;;;;;;;;;;;;;;;-140.72;100.00;52638.41;5066925;28;20003;-68
2023/09/04 01:03:36;;;;;;;;;;;;;;;-140.72;100.00;52634.38;5074506;28;19923;-69
2023/09/04 01:06:01;;;;;;;;;;;;;;;-140.72;100.00;52626.25;5079525;28;19971;-69
2023/09/04 01:08:27;;;;;;;;;;;;;;;-140.72;100.00;52646.53;5061104;28;20347;-69
2023/09/04 01:11:00;;;;;;;;;;;;;;;-140.72;100.00;52650.59;5074377;28;20355;-69
2023/09/04 01:13:46;;;;;;;;;;;;;;;-140.72;100.00;52660.75;5072664;28;19917;-69
2023/09/04 01:16:11;;;;;;;;;;;;;;;-140.72;100.00;52662.78;5075695;28;20026;-69
2023/09/04 01:18:36;;;;;;;;;;;;;;;-140.72;100.00;52618.13;5063729;28;19964;-69
2023/09/04 01:21:05;;;;;;;;;;;;;;;-140.72;100.00;52648.56;5058333;28;19921;-68
2023/09/04 01:23:31;;;;;;;;;;;;;;;-140.72;100.00;52618.13;5076389;28;19924;-69
2023/09/04 01:26:17;;;;;;;;;;;;;;;-140.72;100.00;52610.00;5068694;28;19920;-69
2023/09/04 01:28:48;;;;;;;;;;;;;;;-140.72;100.00;52650.59;5065984;28;20011;-69
2023/09/04 01:31:18;;;;;;;;;;;;;;;-140.72;100.00;52626.25;5072816;28;19963;-70
2023/09/04 01:33:47;;;;;;;;;;;;;;;-140.72;100.00;52618.13;5075027;28;19916;-70
2023/09/04 01:36:14;;;;;;;;;;;;;;;-140.72;100.00;52626.25;5072041;28;19940;-70
2023/09/04 01:38:40;;;;;;;;;;;;;;;-140.72;100.00;52668.84;5066969;28;19936;-68
2023/09/04 01:41:05;;;;;;;;;;;;;;;-140.72;100.00;52614.06;5064480;28;19920;-69
2023/09/04 01:43:36;;;;;;;;;;;;;;;-140.72;100.00;52612.03;5060283;28;19923;-69
2023/09/04 01:46:02;;;;;;;;;;;;;;;-140.72;100.00;52618.13;5059715;28;20035;-69
2023/09/04 01:48:27;;;;;;;;;;;;;;;-140.72;100.00;52656.69;5079441;28;19970;-69
2023/09/04 01:50:53;;;;;;;;;;;;;;;-140.72;100.00;52650.59;5061285;28;20366;-69
2023/09/04 01:53:19;;;;;;;;;;;;;;;-140.72;100.00;52662.78;5069128;28;20432;-69
2023/09/04 01:55:44;;;;;;;;;;;;;;;-140.72;100.00;52650.59;5065727;28;20026;-68
2023/09/04 01:58:10;;;;;;;;;;;;;;;-140.72;100.00;52650.59;5059014;28;20413;-69
2023/09/04 02:00:35;;;;;;;;;;;;;;;-140.72;100.00;52622.19;5066035;28;20320;-69
2023/09/04 02:03:00;;;;;;;;;;;;;;;-140.72;100.00;52618.13;5064405;28;20032;-69
2023/09/04 02:05:26;;;;;;;;;;;;;;;-140.72;100.00;52618.13;5067922;28;19928;-68
2023/09/04 02:07:51;;;;;;;;;;;;;;;-140.72;100.00;52646.53;5072994;28;19926;-69
2023/09/04 02:10:16;;;;;;;;;;;;;;;-140.72;100.00;52674.94;5066331;28;19935;-69
2023/09/04 02:12:41;;;;;;;;;;;;;;;-140.72;100.00;52662.78;5066499;28;19956;-69
2023/09/04 02:15:07;;;;;;;;;;;;;;;-140.72;100.00;52650.59;5061164;28;20382;-69
2023/09/04 02:17:33;;;;;;;;;;;;;;;-140.72;100.00;52642.47;5071694;28;19920;-69
2023/09/04 02:19:59;;;;;;;;;;;;;;;-140.72;100.00;52646.53;5071838;28;19920;-69
2023/09/04 02:22:24;;;;;;;;;;;;;;;-140.72;100.00;52630.31;5069808;28;19945;-69
2023/09/04 02:24:49;;;;;;;;;;;;;;;-140.72;100.00;52666.84;5066670;28;19955;-69
2023/09/04 02:27:15;;;;;;;;;;;;;;;-140.72;100.00;52670.88;5073240;28;19921;-69
2023/09/04 02:29:40;;;;;;;;;;;;;;;-140.72;100.00;52662.78;5070957;28;19986;-69
2023/09/04 02:32:05;;;;;;;;;;;;;;;-140.72;100.00;52674.94;5069576;28;19916;-69
2023/09/04 02:34:31;;;;;;;;;;;;;;;-140.72;100.00;52648.56;5083410;28;19916;-69
2023/09/04 02:36:58;;;;;;;;;;;;;;;-140.72;100.00;52683.06;5065212;28;20303;-68
2023/09/04 02:39:23;;;;;;;;;;;;;;;-140.72;100.00;52660.75;5063397;28;19917;-69
2023/09/04 02:41:48;;;;;;;;;;;;;;;-140.72;100.00;52664.81;5063588;28;19916;-69
2023/09/04 02:44:13;;;;;;;;;;;;;;;-140.72;100.00;52674.94;5075353;28;19916;-69
2023/09/04 02:46:39;;;;;;;;;;;;;;;-140.72;100.00;52620.16;5075828;28;19924;-69
2023/09/04 02:49:04;;;;;;;;;;;;;;;-140.72;100.00;52648.56;5057645;28;19924;-69
2023/09/04 02:51:29;;;;;;;;;;;;;;;-140.72;100.00;52683.06;5074919;28;19921;-69
2023/09/04 02:53:54;;;;;;;;;;;;;;;-140.72;100.00;52640.44;5067271;28;19956;-69
2023/09/04 02:56:19;;;;;;;;;;;;;;;-140.72;100.00;52664.81;5072164;28;20012;-69
2023/09/04 02:58:45;;;;;;;;;;;;;;;-140.72;100.00;52650.59;5065910;28;19967;-69
2023/09/04 03:01:13;;;;;;;;;;;;;;;-140.72;100.00;52656.69;5072601;28;20294;-68
2023/09/04 03:03:38;;;;;;;;;;;;;;;-140.72;100.00;52650.59;5083462;28;19961;-69
2023/09/04 03:06:07;;;;;;;;;;;;;;;-140.72;100.00;52648.56;5064784;28;19920;-69
2023/09/04 03:08:32;;;;;;;;;;;;;;;-140.72;100.00;52693.22;5071806;28;19917;-69
2023/09/04 03:10:57;;;;;;;;;;;;;;;-140.72;100.00;52656.69;5070966;28;19935;-69
2023/09/04 03:13:23;;;;;;;;;;;;;;;-140.72;100.00;52674.94;5070962;28;20290;-69
2023/09/04 03:15:48;;;;;;;;;;;;;;;-140.72;100.00;52676.97;5070258;28;19917;-69
2023/09/04 03:18:13;;;;;;;;;;;;;;;-140.72;100.00;52666.84;5067245;28;20318;-68
2023/09/04 03:20:38;;;;;;;;;;;;;;;-140.72;100.00;52679.00;5070976;28;20077;-69
2023/09/04 03:23:03;;;;;;;;;;;;;;;-140.72;100.00;52683.06;5081381;28;20339;-68
2023/09/04 03:25:29;;;;;;;;;;;;;;;-140.72;100.00;52650.59;5060847;28;19966;-68
2023/09/04 03:27:54;;;;;;;;;;;;;;;-140.72;100.00;52681.03;5071199;28;19956;-69
2023/09/04 03:30:20;;;;;;;;;;;;;;;-140.72;100.00;52699.31;5060632;28;19921;-69
2023/09/04 03:32:45;;;;;;;;;;;;;;;-140.72;100.00;52679.00;5071517;28;19921;-69
2023/09/04 03:35:12;;;;;;;;;;;;;;;-140.72;100.00;52699.31;5068028;28;19917;-69
2023/09/04 03:37:38;;;;;;;;;;;;;;;-140.72;100.00;52666.84;5060900;28;20417;-69
2023/09/04 03:40:23;;;;;;;;;;;;;;;-140.72;100.00;52679.00;5069915;28;19924;-69
2023/09/04 03:42:48;;;;;;;;;;;;;;;-140.72;100.00;52652.63;5068679;28;19946;-69
2023/09/04 03:45:13;;;;;;;;;;;;;;;-140.72;100.00;52676.97;5071272;28;19920;-68
2023/09/04 03:47:40;;;;;;;;;;;;;;;-140.72;100.00;52699.31;5069904;28;19932;-69
2023/09/04 03:50:08;;;;;;;;;;;;;;;-140.72;100.00;52660.75;5065537;28;19943;-69
2023/09/04 03:52:33;;;;;;;;;;;;;;;-140.72;100.00;52656.69;5061882;28;20383;-69
2023/09/04 03:55:29;;;;;;;;;;;;;;;-140.72;100.00;52697.28;5068738;28;19966;-68
2023/09/04 03:57:59;;;;;;;;;;;;;;;-140.72;100.00;52632.34;5069368;28;19916;-68
2023/09/04 04:00:24;;;;;;;;;;;;;;;-140.72;100.00;52695.25;5072229;28;19927;-68
2023/09/04 04:02:51;;;;;;;;;;;;;;;-140.72;100.00;52650.59;5075706;28;20019;-69
2023/09/04 04:05:17;;;;;;;;;;;;;;;-140.72;100.00;52691.19;5075980;28;19925;-68
2023/09/04 04:07:42;;;;;;;;;;;;;;;-140.72;100.00;52683.06;5073043;28;19935;-68
2023/09/04 04:10:09;;;;;;;;;;;;;;;-140.72;100.00;52721.63;5075051;28;20909;-69
2023/09/04 04:12:34;;;;;;;;;;;;;;;-140.72;100.00;52654.66;5063338;28;19921;-69
2023/09/04 04:15:03;;;;;;;;;;;;;;;-140.72;100.00;52687.13;5069429;28;19921;-69
2023/09/04 04:17:28;;;;;;;;;;;;;;;-140.72;100.00;52707.41;5066146;28;19921;-69
2023/09/04 04:19:53;;;;;;;;;;;;;;;-140.72;100.00;52725.69;5074778;28;19916;-68
2023/09/04 04:22:20;;;;;;;;;;;;;;;-140.72;100.00;52662.78;5069024;28;19917;-74
2023/09/04 04:24:45;;;;;;;;;;;;;;;-140.72;100.00;52711.47;5070379;28;20314;-72
2023/09/04 04:27:12;;;;;;;;;;;;;;;-140.72;100.00;52709.44;5067057;28;19921;-72
2023/09/04 04:29:37;;;;;;;;;;;;;;;-140.72;100.00;52713.50;5068741;28;19925;-72
2023/09/04 04:32:23;;;;;;;;;;;;;;;-140.72;100.00;52707.41;5070532;28;20362;-72
2023/09/04 04:34:48;;;;;;;;;;;;;;;-140.72;100.00;52689.16;5072027;28;19971;-75
2023/09/04 04:37:17;;;;;;;;;;;;;;;-140.72;100.00;52674.94;5062596;28;19921;-74
2023/09/04 04:39:42;;;;;;;;;;;;;;;-140.72;100.00;52670.88;5072826;28;20007;-74
2023/09/04 04:42:07;;;;;;;;;;;;;;;-140.72;100.00;52703.34;5061764;28;19963;-72
2023/09/04 04:44:32;;;;;;;;;;;;;;;-140.72;100.00;52731.75;5063165;28;20007;-72
2023/09/04 04:46:58;;;;;;;;;;;;;;;-140.72;100.00;52723.66;5070693;28;19916;-72
2023/09/04 04:49:23;;;;;;;;;;;;;;;-140.72;100.00;52701.31;5076700;28;19917;-72
2023/09/04 04:51:51;;;;;;;;;;;;;;;-140.72;100.00;52679.00;5079306;28;20381;-72
2023/09/04 04:54:19;;;;;;;;;;;;;;;-140.72;100.00;52691.19;5074166;28;19927;-73
2023/09/04 04:57:16;;;;;;;;;;;;;;;-140.72;100.00;52679.00;5069451;28;19938;-72
2023/09/04 04:59:41;;;;;;;;;;;;;;;-140.72;100.00;52717.56;5069441;28;19928;-73
2023/09/04 05:02:12;;;;;;;;;;;;;;;-140.72;100.00;52691.19;5072602;28;19924;-74
2023/09/04 05:04:45;;;;;;;;;;;;;;;-140.72;100.00;52731.75;5077503;28;19921;-73
2023/09/04 05:07:10;;;;;;;;;;;;;;;-140.72;100.00;52683.06;5068324;28;19918;-73
2023/09/04 05:09:35;;;;;;;;;;;;;;;-140.72;100.00;52695.25;5078194;28;20007;-73
2023/09/04 05:12:00;;;;;;;;;;;;;;;-140.72;100.00;52691.19;5064558;28;20381;-73
2023/09/04 05:14:25;;;;;;;;;;;;;;;-140.72;100.00;52691.19;5071629;28;19916;-72
2023/09/04 05:16:51;;;;;;;;;;;;;;;-140.72;100.00;52687.13;5069859;28;19979;-73
2023/09/04 05:19:16;;;;;;;;;;;;;;;-140.72;100.00;52666.84;5070802;28;19921;-70
2023/09/04 05:21:41;;;;;;;;;;;;;;;-140.72;100.00;52760.19;5059976;28;19969;-68
2023/09/04 05:24:07;;;;;;;;;;;;;;;-140.72;100.00;52691.19;5079927;28;19978;-68
2023/09/04 05:26:32;;;;;;;;;;;;;;;-140.72;100.00;52685.09;5075490;28;20382;-68
2023/09/04 05:29:15;;;;;;;;;;;;;;;-140.72;100.00;52699.31;5070223;28;19928;-69
2023/09/04 05:31:40;;;;;;;;;;;;;;;-140.72;100.00;52687.13;5062204;28;19928;-69
2023/09/04 05:34:05;;;;;;;;;;;;;;;-140.72;100.00;52691.19;5077424;28;19920;-68
2023/09/04 05:36:30;;;;;;;;;;;;;;;-140.72;100.00;52711.47;5063059;28;20425;-68
2023/09/04 05:38:56;;;;;;;;;;;;;;;-140.72;100.00;52689.16;5076599;28;20014;-68
2023/09/04 05:41:37;;;;;;;;;;;;;;;-140.72;100.00;52729.75;5077331;28;19917;-68
2023/09/04 05:44:02;;;;;;;;;;;;;;;-140.72;100.00;52707.41;5074363;28;19920;-67
2023/09/04 05:46:41;;;;;;;;;;;;;;;-140.72;100.00;52693.22;5070492;28;20272;-67
2023/09/04 05:49:06;;;;;;;;;;;;;;;-140.72;100.00;52713.50;5075459;28;19970;-67
2023/09/04 05:51:31;;;;;;;;;;;;;;;-140.72;100.00;52672.91;5062829;28;19917;-67
2023/09/04 05:53:56;;;;;;;;;;;;;;;-140.72;100.00;52689.16;5066835;28;19924;-67
2023/09/04 05:56:24;;;;;;;;;;;;;;;-140.72;100.00;52681.03;5067511;28;19917;-70
2023/09/04 05:58:50;;;;;;;;;;;;;;;-140.72;100.00;52660.75;5065802;28;19970;-72
2023/09/04 06:01:19;;;;;;;;;;;;;;;-140.72;100.00;52654.66;5068820;28;19916;-71
2023/09/04 06:03:45;;;;;;;;;;;;;;;-140.72;100.00;52687.13;5067198;28;19920;-72
2023/09/04 06:06:10;;;;;;;;;;;;;;;-140.72;100.00;52650.59;5057322;28;19917;-71
2023/09/04 06:08:36;;;;;;;;;;;;;;;-140.72;100.00;52674.94;5068275;28;20370;-70
2023/09/04 06:11:03;;;;;;;;;;;;;;;-140.72;100.00;52662.78;5068154;28;20379;-70
2023/09/04 06:13:29;;;;;;;;;;;;;;;-140.72;100.00;52654.66;5066408;28;20386;-71
2023/09/04 06:15:54;;;;;;;;;;;;;;;-140.72;100.00;52683.06;5073681;28;19942;-69
2023/09/04 06:18:20;;;;;;;;;;;;;;;-140.72;100.00;52666.84;5068425;28;19955;-71
2023/09/04 06:20:45;;;;;;;;;;;;;;;-140.72;100.00;52666.84;5068812;28;19916;-69
2023/09/04 06:23:11;;;;;;;;;;;;;;;-140.72;100.00;52652.63;5073820;28;19923;-69
2023/09/04 06:25:39;;;;;;;;;;;;;;;-140.72;100.00;52632.34;5068628;28;19924;-69
2023/09/04 06:28:08;;;;;;;;;;;;;;;-140.72;100.00;52664.81;5061762;28;20252;-72
2023/09/04 06:30:34;;;;;;;;;;;;;;;-140.72;100.00;52648.56;5060738;28;19928;-71
2023/09/04 06:32:59;;;;;;;;;;;;;;;-140.72;100.00;52666.84;5071651;28;19921;-71
2023/09/04 06:35:25;;;;;;;;;;;;;;;-140.72;100.00;52689.16;5071405;28;19920;-69
2023/09/04 06:37:50;;;;;;;;;;;;;;;-140.72;100.00;52638.41;5073747;28;19921;-69
2023/09/04 06:40:16;;;;;;;;;;;;;;;-140.72;100.00;52650.59;5065605;28;19928;-70
2023/09/04 06:42:41;;;;;;;;;;;;;;;-140.72;100.00;52640.44;5071600;28;19978;-70
2023/09/04 06:45:06;;;;;;;;;;;;;;;-140.72;100.00;52650.59;5071108;28;19920;-70
2023/09/04 06:47:32;;;;;;;;;;;;;;;-140.72;100.00;52634.38;5067246;28;19960;-69
2023/09/04 06:49:57;;;;;;;;;;;;;;;-140.72;100.00;52668.84;5082262;28;19981;-74
2023/09/04 06:52:24;;;;;;;;;;;;;;;-140.72;100.00;52614.06;5058131;28;19917;-69
2023/09/04 06:54:49;;;;;;;;;;;;;;;-140.72;100.00;52622.19;5069054;28;19927;-70
2023/09/04 06:57:15;;;;;;;;;;;;;;;-140.72;100.00;52634.38;5066724;28;19916;-69
2023/09/04 06:59:40;;;;;;;;;;;;;;;-140.72;100.00;52630.31;5073219;28;20386;-70
2023/09/04 07:02:05;;;;;;;;;;;;;;;-140.72;100.00;52626.25;5058972;28;19923;-69
2023/09/04 07:04:30;;;;;;;;;;;;;;;-140.72;100.00;52610.00;5069250;28;19942;-70
2023/09/04 07:06:56;;;;;;;;;;;;;;;-140.72;100.00;52644.50;5064215;28;19975;-68
2023/09/04 07:09:21;;;;;;;;;;;;;;;-140.72;100.00;52628.28;5065930;28;20028;-68
2023/09/04 07:11:46;;;;;;;;;;;;;;;-140.72;100.00;52628.28;5060201;28;19975;-68
2023/09/04 07:14:14;;;;;;;;;;;;;;;-140.72;100.00;52610.00;5062530;28;19920;-68
2023/09/04 07:16:39;;;;;;;;;;;;;;;-140.72;100.00;52605.94;5066682;28;19953;-68
2023/09/04 07:19:04;;;;;;;;;;;;;;;-140.72;100.00;52620.16;5069881;28;19920;-68
2023/09/04 07:21:30;;;;;;;;;;;;;;;-140.72;100.00;52610.00;5069310;28;19924;-68
2023/09/04 07:23:55;;;;;;;;;;;;;;;-140.72;100.00;52610.00;5070137;28;20045;-68
2023/09/04 07:26:20;;;;;;;;;;;;;;;-140.72;100.00;52622.19;5073055;28;19920;-68
2023/09/04 07:28:45;;;;;;;;;;;;;;;-140.72;100.00;52630.31;5073131;28;19928;-68
2023/09/04 07:31:18;;;;;;;;;;;;;;;-140.72;100.00;52597.84;5072797;28;19921;-68
2023/09/04 07:33:43;;;;;;;;;;;;;;;-140.72;100.00;52610.00;5070682;28;20285;-68
2023/09/04 07:36:08;;;;;;;;;;;;;;;-140.72;100.00;52612.03;5072158;28;19924;-68
2023/09/04 07:38:34;;;;;;;;;;;;;;;-140.72;100.00;52640.44;5071718;28;20353;-69
2023/09/04 07:41:00;;;;;;;;;;;;;;;-140.72;100.00;52599.88;5072528;28;19928;-67
2023/09/04 07:43:25;;;;;;;;;;;;;;;-140.72;100.00;52591.75;5064967;28;20271;-68
2023/09/04 07:45:52;;;;;;;;;;;;;;;-140.72;100.00;52569.44;5065175;28;19927;-68
2023/09/04 07:48:18;;;;;;;;;;;;;;;-140.72;100.00;52599.88;5073096;28;19982;-68
2023/09/04 07:50:43;;;;;;;;;;;;;;;-140.72;100.00;52555.22;5069186;28;20375;-67
2023/09/04 07:53:08;;;;;;;;;;;;;;;-140.72;100.00;52581.59;5066098;28;19967;-68
2023/09/04 07:55:33;;;;;;;;;;;;;;;-140.72;100.00;52559.28;5067302;28;20389;-67
2023/09/04 07:57:59;;;;;;;;;;;;;;;-140.72;100.00;52589.72;5068521;28;19924;-68
2023/09/04 08:00:24;;;;;;;;;;;;;;;-140.72;100.00;52555.22;5070917;28;19921;-67
2023/09/04 08:02:50;;;;;;;;;;;;;;;-140.72;100.00;52557.25;5068563;28;19970;-68
2023/09/04 08:05:15;;;;;;;;;;;;;;;-140.72;100.00;52561.31;5067953;28;19946;-69
2023/09/04 08:07:40;;;;;;;;;;;;;;;-140.72;100.00;52549.13;5067421;28;20001;-69
2023/09/04 08:10:06;;;;;;;;;;;;;;;-140.72;100.00;52555.22;5068315;28;19956;-69
2023/09/04 08:12:31;;;;;;;;;;;;;;;-140.72;100.00;52557.25;5069606;28;19924;-69
2023/09/04 08:14:56;;;;;;;;;;;;;;;-140.72;100.00;52555.22;5068255;28;19925;-69
2023/09/04 08:17:21;;;;;;;;;;;;;;;-140.72;100.00;52530.88;5069731;28;19942;-68
2023/09/04 08:19:47;;;;;;;;;;;;;;;-140.72;100.00;52549.13;5078184;28;19929;-69
2023/09/04 08:22:12;;;;;;;;;;;;;;;-140.72;100.00;52539.00;5068502;28;19921;-69
2023/09/04 08:24:37;;;;;;;;;;;;;;;-140.72;100.00;52472.03;5084103;28;19966;-68
2023/09/04 08:27:02;;;;;;;;;;;;;;;-140.72;100.00;52528.84;5083330;28;19970;-68
2023/09/04 08:29:28;;;;;;;;;;;;;;;-140.72;100.00;52541.03;5074053;28;19956;-68
2023/09/04 08:31:53;;;;;;;;;;;;;;;-140.72;100.00;52496.38;5062061;28;20382;-68
2023/09/04 08:34:18;;;;;;;;;;;;;;;-140.72;100.00;52528.84;5068510;28;19959;-68
2023/09/04 08:36:43;;;;;;;;;;;;;;;-140.72;100.00;52492.31;5064899;28;19935;-74
2023/09/04 08:39:09;;;;;;;;;;;;;;;-140.72;100.00;52435.50;5073806;28;19920;-69
2023/09/04 08:41:34;;;;;;;;;;;;;;;-140.72;100.00;52465.94;5080420;28;19928;-69
2023/09/04 08:43:59;;;;;;;;;;;;;;;-140.72;100.00;52433.47;5071629;28;19965;-69
2023/09/04 08:46:26;;;;;;;;;;;;;;;-140.72;100.00;52461.88;5072139;28;20397;-69
2023/09/04 08:48:52;;;;;;;;;;;;;;;-140.72;100.00;52425.34;5086296;28;19929;-69
2023/09/04 08:51:18;;;;;;;;;;;;;;;-140.72;100.00;52411.16;5073682;28;20410;-69
2023/09/04 08:53:43;;;;;;;;;;;;;;;-140.72;100.00;52427.38;5077102;28;20034;-69
2023/09/04 08:56:08;;;;;;;;;;;;;;;-140.72;100.00;52366.50;5069520;28;20409;-69
2023/09/04 08:58:33;;;;;;;;;;;;;;;-140.72;100.00;52358.41;5066124;28;19921;-68
2023/09/04 09:00:59;;;;;;;;;;;;;;;-140.72;100.00;52344.19;5078383;28;19927;-69
2023/09/04 09:03:24;;;;;;;;;;;;;;;-140.72;100.00;52360.44;5085019;28;20298;-69
2023/09/04 09:05:50;;;;;;;;;;;;;;;-140.72;100.00;52352.31;5081180;28;20384;-69
2023/09/04 09:08:18;;;;;;;;;;;;;;;-140.72;100.00;52327.97;5082447;28;20303;-69
2023/09/04 09:10:46;;;;;;;;;;;;;;;-140.72;100.00;52321.88;5075561;28;19927;-69
2023/09/04 09:13:13;;;;;;;;;;;;;;;-140.72;100.00;52332.03;5081970;28;20007;-69
2023/09/04 09:15:39;;;;;;;;;;;;;;;-140.72;100.00;52317.81;5078077;28;19921;-69
2023/09/04 09:18:04;;;;;;;;;;;;;;;-140.72;100.00;52283.31;5085495;28;19925;-69
2023/09/04 09:20:31;;;;;;;;;;;;;;;-140.72;100.00;52265.06;5078790;28;19920;-69
2023/09/04 09:22:57;;;;;;;;;;;;;;;-140.72;100.00;52248.81;5077212;28;19923;-70
2023/09/04 09:25:22;;;;;;;;;;;;;;;-140.72;100.00;52254.91;5080953;28;19923;-69
2023/09/04 09:27:48;;;;;;;;;;;;;;;-140.72;100.00;52238.69;5078542;28;20003;-69
2023/09/04 09:30:14;;;;;;;;;;;;;;;-140.72;100.00;52214.34;5075357;28;19924;-69
2023/09/04 09:32:41;;;;;;;;;;;;;;;-140.72;100.00;52192.00;5071648;28;19916;-69
2023/09/04 09:35:07;;;;;;;;;;;;;;;-140.72;100.00;52224.47;5070072;28;19959;-69
2023/09/04 09:37:33;;;;;;;;;;;;;;;-140.72;100.00;52187.97;5075321;28;19960;-69
2023/09/04 09:39:58;;;;;;;;;;;;;;;-140.72;100.00;52220.41;5062874;28;19941;-67
2023/09/04 09:42:26;;;;;;;;;;;;;;;-140.72;100.00;52177.81;5074781;28;19921;-67
2023/09/04 09:44:52;;;;;;;;;;;;;;;-140.72;100.00;52218.38;5074234;28;20091;-67
2023/09/04 09:47:17;;;;;;;;;;;;;;;-140.72;100.00;52224.47;5078196;28;20010;-68
2023/09/04 09:49:43;;;;;;;;;;;;;;;-140.72;100.00;52204.19;5075144;28;20010;-69
2023/09/04 09:52:09;;;;;;;;;;;;;;;-140.72;100.00;52208.25;5074119;28;19917;-69
2023/09/04 09:54:39;;;;;;;;;;;;;;;-140.72;94.90;52224.47;5069767;28;20320;-68
2023/09/04 09:57:08;;;;;;;;;;;;;;;-140.72;68.51;52192.00;5071060;28;20032;-69
2023/09/04 09:59:38;;;;;;;;;;;;;;;-140.72;0.00;52161.56;5069411;28;19916;-68
2023/09/04 10:02:04;;;;;;;;;;;;;;;-140.72;0.00;52192.00;5075030;28;19974;-68
2023/09/04 10:04:31;;;;;;;;;;;;;;;-140.72;0.00;52187.97;5073755;28;19924;-74
2023/09/04 10:06:58;;;;;;;;;;;;;;;-140.72;0.00;52171.72;5073837;28;19928;-70
2023/09/04 10:09:24;;;;;;;;;;;;;;;-140.72;0.00;52177.81;5077741;28;19916;-70
2023/09/04 10:11:53;;;;;;;;;;;;;;;-140.72;0.00;52139.25;5073310;28;19974;-70
2023/09/04 10:14:31;;;;;;;;;;;;;;;-140.72;0.00;52074.34;5067411;28;19920;-70
2023/09/04 10:16:58;;;;;;;;;;;;;;;-140.72;0.00;52070.28;5067778;28;20267;-70
2023/09/04 10:19:33;;;;;;;;;;;;;;;-140.72;0.00;52062.16;5069642;28;19923;-71
2023/09/04 10:22:00;;;;;;;;;;;;;;;-140.72;0.00;52023.59;5064791;28;20001;-70
2023/09/04 10:24:30;;;;;;;;;;;;;;;-140.72;0.00;52015.50;5062502;28;19972;-71
2023/09/04 10:27:16;;;;;;;;;;;;;;;-140.72;0.00;52039.84;5066648;28;19920;-71
2023/09/04 10:29:49;;;;;;;;;;;;;;;-140.72;0.00;52001.28;5065355;28;19920;-71
2023/09/04 10:32:15;;;;;;;;;;;;;;;-140.72;0.00;52017.53;5067840;28;20023;-70
2023/09/04 10:34:40;;;;;;;;;;;;;;;-140.72;0.00;51993.19;5064981;28;20023;-71
2023/09/04 10:37:08;;;;;;;;;;;;;;;-140.72;0.00;51989.13;5067366;28;19921;-70
2023/09/04 10:39:33;;;;;;;;;;;;;;;-140.72;0.00;51991.16;5062839;28;19921;-71
2023/09/04 10:42:00;;;;;;;;;;;;;;;-140.72;0.00;51974.91;5070904;28;19924;-71
2023/09/04 10:44:45;;;;;;;;;;;;;;;-140.72;0.00;52074.34;5067302;28;19920;-71
2023/09/04 10:47:10;;;;;;;;;;;;;;;-140.72;0.00;52019.56;5065281;28;19958;-71
2023/09/04 10:49:36;;;;;;;;;;;;;;;-140.72;0.00;52033.75;5069607;28;20382;-72
2023/09/04 10:52:01;;;;;;;;;;;;;;;-140.72;0.00;52005.34;5069082;28;19924;-71
2023/09/04 10:54:27;;;;;;;;;;;;;;;-140.72;0.00;51964.78;5067259;28;20429;-71
2023/09/04 10:56:56;;;;;;;;;;;;;;;-140.72;0.00;51932.31;5059196;28;19960;-71
2023/09/04 10:59:22;;;;;;;;;;;;;;;-140.72;0.00;51889.69;5066279;28;20761;-71
2023/09/04 11:01:47;;;;;;;;;;;;;;;-140.72;0.00;51889.69;5066900;28;19999;-71
2023/09/04 11:04:25;;;;;;;;;;;;;;;-140.72;0.00;51930.28;5069397;28;20305;-71
2023/09/04 11:07:11;;;;;;;;;;;;;;;-140.72;0.00;51851.16;5067919;28;19929;-70
2023/09/04 11:09:36;;;;;;;;;;;;;;;-140.72;0.00;51851.16;5066661;28;19928;-69
2023/09/04 11:12:01;;;;;;;;;;;;;;;-140.72;0.00;51851.16;5067301;28;19962;-70
2023/09/04 11:14:32;;;;;;;;;;;;;;;-140.72;0.00;51851.16;5060880;28;19929;-70
2023/09/04 11:17:02;;;;;;;;;;;;;;;-140.72;0.00;51838.97;5064467;28;19931;-69
2023/09/04 11:19:34;;;;;;;;;;;;;;;-140.72;0.00;51824.78;5071125;28;19920;-68
2023/09/04 11:21:59;;;;;;;;;;;;;;;-140.72;0.00;51784.19;5067437;28;19970;-70
2023/09/04 11:24:25;;;;;;;;;;;;;;;-140.72;0.00;51757.81;5067469;28;19921;-70
2023/09/04 11:26:50;;;;;;;;;;;;;;;-140.72;0.00;51806.53;5062410;28;19921;-70
2023/09/04 11:29:16;;;;;;;;;;;;;;;-140.72;0.00;51782.16;5065918;28;19925;-70
2023/09/04 11:31:42;;;;;;;;;;;;;;;-140.72;0.00;51733.47;5069223;28;19925;-70
2023/09/04 11:34:07;;;;;;;;;;;;;;;-140.72;0.00;51725.38;5068012;28;19925;-70
2023/09/04 11:36:36;;;;;;;;;;;;;;;-140.72;0.00;51774.06;5067878;28;19930;-71
2023/09/04 11:39:03;;;;;;;;;;;;;;;-140.72;0.00;51770.00;5071227;28;20006;-71
2023/09/04 11:41:29;;;;;;;;;;;;;;;-140.72;0.00;51749.72;5069892;28;20023;-70
2023/09/04 11:43:54;;;;;;;;;;;;;;;-140.72;0.00;51731.44;5071522;28;20063;-70
2023/09/04 11:46:19;;;;;;;;;;;;;;;-140.72;0.00;51715.22;5067660;28;19931;-71
2023/09/04 11:48:44;;;;;;;;;;;;;;;-140.72;0.00;51678.72;5065333;28;20386;-70
2023/09/04 11:51:10;;;;;;;;;;;;;;;-140.72;0.00;51666.53;5064565;28;19920;-71
2023/09/04 11:53:37;;;;;;;;;;;;;;;-140.72;0.00;51628.00;5064952;28;19929;-70
2023/09/04 11:56:03;;;;;;;;;;;;;;;-140.72;0.00;51636.09;5068027;28;20011;-71
2023/09/04 11:58:28;;;;;;;;;;;;;;;-140.72;0.00;51591.47;5064885;28;19932;-71
2023/09/04 12:00:53;;;;;;;;;;;;;;;-140.72;0.00;51561.03;5067499;28;19973;-71
2023/09/04 12:03:19;;;;;;;;;;;;;;;-140.72;0.00;51609.72;5064508;28;20616;-71
2023/09/04 12:05:44;;;;;;;;;;;;;;;-140.72;0.00;51613.78;5065988;28;19920;-71
2023/09/04 12:08:10;;;;;;;;;;;;;;;-140.72;0.00;51579.28;5075458;28;20293;-71
2023/09/04 12:10:37;;;;;;;;;;;;;;;-140.72;0.00;51559.00;5067704;28;19921;-71
2023/09/04 12:13:02;;;;;;;;;;;;;;;-140.72;0.00;51577.28;5069337;28;20378;-71
2023/09/04 12:15:30;;;;;;;;;;;;;;;-140.72;0.00;51538.72;5069383;28;19921;-70
2023/09/04 12:17:57;;;;;;;;;;;;;;;-140.72;0.00;51522.50;5069883;28;21114;-71